Time;durP1;ratioP1;P1;durP2;ratioP2;P2;SDS_P1;SDS_P2;PMS_P1;PMS_P2;Temp;Humidity;BMP_temperature;BMP_pressure;BME280_temperature;BME280_humidity;BME280_pressure;Samples;Min_cycle;Max_cycle;Signal;HPM_P1;HPM_P2
2022/09/02 00:01:19;;;;;;;0.15;0.15;;;17.60;99.90;;;;;;4993304;28;20141;-72
2022/09/02 00:03:46;;;;;;;0.00;0.00;;;17.60;99.90;;;;;;4996255;28;20497;-72
2022/09/02 00:06:12;;;;;;;0.00;0.00;;;17.60;99.90;;;;;;5009524;28;20092;-71
2022/09/02 00:08:39;;;;;;;0.00;0.00;;;17.50;99.90;;;;;;5006476;28;20474;-72
2022/09/02 00:11:06;;;;;;;0.00;0.00;;;17.50;99.90;;;;;;4993080;28;20430;-71
2022/09/02 00:13:34;;;;;;;0.00;0.00;;;17.40;99.90;;;;;;4992833;28;20529;-72
2022/09/02 00:16:00;;;;;;;0.00;0.00;;;17.50;99.90;;;;;;5012005;28;20133;-71
2022/09/02 00:18:26;;;;;;;0.05;0.05;;;17.30;99.90;;;;;;5008859;28;20494;-71
2022/09/02 00:20:52;;;;;;;0.00;0.00;;;17.30;99.90;;;;;;4993466;28;20053;-72
2022/09/02 00:23:18;;;;;;;0.10;0.10;;;17.30;99.90;;;;;;4998125;28;20060;-72
2022/09/02 00:25:44;;;;;;;0.25;0.25;;;17.30;99.90;;;;;;4992294;28;20057;-71
2022/09/02 00:28:12;;;;;;;0.00;0.00;;;17.20;99.90;;;;;;5008208;28;20054;-71
2022/09/02 00:30:38;;;;;;;0.10;0.10;;;17.30;99.90;;;;;;5004685;28;20081;-71
2022/09/02 00:33:05;;;;;;;0.00;0.00;;;17.30;99.90;;;;;;4994760;28;20042;-71
2022/09/02 00:35:31;;;;;;;0.10;0.10;;;17.30;99.90;;;;;;4992098;28;20052;-71
2022/09/02 00:37:57;;;;;;;0.10;0.10;;;17.30;99.90;;;;;;4997092;28;20077;-71
2022/09/02 00:40:23;;;;;;;0.03;0.03;;;17.30;99.90;;;;;;4991906;28;20077;-71
2022/09/02 00:42:50;;;;;;;0.00;0.00;;;17.20;99.90;;;;;;4989848;28;20105;-71
2022/09/02 00:45:17;;;;;;;0.00;0.00;;;17.20;99.90;;;;;;4990576;28;20521;-71
2022/09/02 00:47:44;;;;;;;0.10;0.10;;;17.30;99.90;;;;;;4991470;28;20082;-72
2022/09/02 00:50:12;;;;;;;0.80;0.63;;;17.20;99.90;;;;;;4996801;28;20046;-71
2022/09/02 00:52:44;;;;;;;0.00;0.00;;;17.10;99.90;;;;;;5011676;28;20056;-72
2022/09/02 00:55:16;;;;;;;0.00;0.00;;;17.10;99.90;;;;;;4995166;28;20554;-71
2022/09/02 00:57:49;;;;;;;0.10;0.10;;;17.10;99.90;;;;;;4990603;28;20035;-72
2022/09/02 01:00:27;;;;;;;0.00;0.00;;;17.10;99.90;;;;;;5002051;28;20057;-71
2022/09/02 01:02:56;;;;;;;0.08;0.08;;;17.10;99.90;;;;;;5006335;28;20514;-71
2022/09/02 01:05:25;;;;;;;0.00;0.00;;;17.00;99.90;;;;;;4991604;28;20042;-71
2022/09/02 01:07:53;;;;;;;0.00;0.00;;;17.00;99.90;;;;;;4989891;28;20447;-71
2022/09/02 01:10:24;;;;;;;0.00;0.00;;;17.10;99.90;;;;;;4990207;28;20579;-71
2022/09/02 01:12:55;;;;;;;0.10;0.10;;;17.00;99.90;;;;;;4991844;28;20052;-71
2022/09/02 01:15:20;;;;;;;0.00;0.00;;;17.00;99.90;;;;;;5008147;28;20050;-71
2022/09/02 01:17:48;;;;;;;0.00;0.00;;;16.90;99.90;;;;;;5010343;28;20060;-72
2022/09/02 01:20:17;;;;;;;0.10;0.10;;;16.90;99.90;;;;;;4991380;28;20134;-71
2022/09/02 01:22:44;;;;;;;0.08;0.08;;;16.90;99.90;;;;;;4991196;28;20054;-71
2022/09/02 01:25:17;;;;;;;0.20;0.20;;;16.90;99.90;;;;;;4991259;28;20678;-71
2022/09/02 01:27:43;;;;;;;0.52;0.52;;;16.80;99.90;;;;;;4991608;28;20050;-71
2022/09/02 01:30:14;;;;;;;0.25;0.25;;;16.90;99.90;;;;;;4997701;28;20120;-71
2022/09/02 01:32:40;;;;;;;0.10;0.10;;;16.80;99.90;;;;;;5009646;28;20103;-71
2022/09/02 01:35:06;;;;;;;0.10;0.10;;;16.80;99.90;;;;;;5005834;28;20046;-71
2022/09/02 01:37:33;;;;;;;0.10;0.10;;;16.70;99.90;;;;;;4990906;28;20500;-71
2022/09/02 01:39:59;;;;;;;0.10;0.10;;;16.70;99.90;;;;;;4992634;28;20046;-71
2022/09/02 01:42:25;;;;;;;0.00;0.00;;;16.70;99.90;;;;;;5004114;28;20523;-71
2022/09/02 01:44:51;;;;;;;0.00;0.00;;;16.70;99.90;;;;;;5007908;28;20053;-71
2022/09/02 01:47:21;;;;;;;0.10;0.10;;;16.70;99.90;;;;;;5004204;28;20560;-71
2022/09/02 01:49:47;;;;;;;0.00;0.00;;;16.60;99.90;;;;;;5010038;28;20061;-71
2022/09/02 01:52:14;;;;;;;0.10;0.10;;;16.60;99.90;;;;;;5003893;28;20062;-71
2022/09/02 01:54:40;;;;;;;0.25;0.25;;;16.50;99.90;;;;;;4998337;28;20053;-72
2022/09/02 01:57:06;;;;;;;0.15;0.15;;;16.60;99.90;;;;;;4989671;28;20046;-72
2022/09/02 01:59:31;;;;;;;0.00;0.00;;;16.50;99.90;;;;;;4990028;28;20089;-71
2022/09/02 02:01:57;;;;;;;0.00;0.00;;;16.40;99.90;;;;;;4989994;28;20137;-71
2022/09/02 02:04:23;;;;;;;0.70;0.70;;;16.40;99.90;;;;;;5004965;28;20041;-71
2022/09/02 02:06:50;;;;;;;2.72;0.65;;;16.30;99.90;;;;;;4996631;28;20060;-71
2022/09/02 02:09:17;;;;;;;0.08;0.08;;;16.30;99.90;;;;;;5009695;28;20402;-71
2022/09/02 02:11:44;;;;;;;0.00;0.00;;;16.30;99.90;;;;;;5009765;28;20041;-71
2022/09/02 02:14:10;;;;;;;0.10;0.10;;;16.30;99.90;;;;;;5009236;28;20085;-71
2022/09/02 02:16:36;;;;;;;0.00;0.00;;;16.30;99.90;;;;;;5009332;28;20037;-71
2022/09/02 02:19:03;;;;;;;0.20;0.20;;;16.40;99.90;;;;;;5008924;28;20072;-72
2022/09/02 02:21:29;;;;;;;0.10;0.10;;;16.30;99.90;;;;;;4998579;28;20185;-71
2022/09/02 02:23:55;;;;;;;0.10;0.10;;;16.30;99.90;;;;;;4996128;28;20047;-72
2022/09/02 02:26:21;;;;;;;0.00;0.00;;;16.30;99.90;;;;;;4996569;28;20042;-71
2022/09/02 02:28:47;;;;;;;0.10;0.10;;;16.20;99.90;;;;;;5010166;28;20379;-71
2022/09/02 02:31:12;;;;;;;0.00;0.00;;;16.20;99.90;;;;;;4998628;28;20085;-71
2022/09/02 02:33:38;;;;;;;0.05;0.05;;;16.10;99.90;;;;;;4993241;28;20045;-71
2022/09/02 02:36:06;;;;;;;0.00;0.00;;;16.20;99.90;;;;;;5003632;28;20494;-71
2022/09/02 02:38:33;;;;;;;0.00;0.00;;;16.20;99.90;;;;;;5000673;28;20069;-71
2022/09/02 02:41:00;;;;;;;0.03;0.03;;;16.10;99.90;;;;;;5004669;28;20054;-71
2022/09/02 02:43:26;;;;;;;0.08;0.08;;;16.10;99.90;;;;;;4990823;28;20393;-71
2022/09/02 02:45:53;;;;;;;0.10;0.10;;;16.10;99.90;;;;;;4991023;28;20038;-71
2022/09/02 02:48:19;;;;;;;0.00;0.00;;;16.10;99.90;;;;;;4992140;28;20096;-72
2022/09/02 02:50:45;;;;;;;0.08;0.08;;;16.10;99.90;;;;;;4989294;28;20128;-71
2022/09/02 02:53:12;;;;;;;0.00;0.00;;;16.10;99.90;;;;;;5001324;28;20069;-71
2022/09/02 02:55:38;;;;;;;0.10;0.10;;;16.10;99.90;;;;;;5002971;28;20046;-71
2022/09/02 02:58:04;;;;;;;0.30;0.30;;;16.00;99.90;;;;;;4990567;28;20069;-71
2022/09/02 03:00:31;;;;;;;0.05;0.05;;;15.90;99.90;;;;;;4989484;28;20042;-71
2022/09/02 03:03:00;;;;;;;0.10;0.10;;;15.90;99.90;;;;;;5004741;28;20046;-71
2022/09/02 03:05:26;;;;;;;0.00;0.00;;;15.90;99.90;;;;;;5008489;28;20092;-71
2022/09/02 03:07:52;;;;;;;0.05;0.05;;;15.90;99.90;;;;;;4991697;28;20046;-71
2022/09/02 03:10:19;;;;;;;0.00;0.00;;;15.90;99.90;;;;;;4993988;28;20068;-71
2022/09/02 03:12:46;;;;;;;0.08;0.08;;;15.80;99.90;;;;;;4996975;28;20053;-71
2022/09/02 03:15:14;;;;;;;1.75;1.00;;;15.80;99.90;;;;;;5008824;28;20057;-71
2022/09/02 03:17:40;;;;;;;0.00;0.00;;;15.80;99.90;;;;;;5013634;28;20046;-71
2022/09/02 03:20:07;;;;;;;0.00;0.00;;;15.80;99.90;;;;;;5013531;28;20061;-71
2022/09/02 03:22:32;;;;;;;0.00;0.00;;;15.80;99.90;;;;;;5000361;28;20044;-71
2022/09/02 03:24:58;;;;;;;0.15;0.15;;;15.80;99.90;;;;;;5011288;28;20120;-71
2022/09/02 03:27:23;;;;;;;0.10;0.10;;;15.70;99.90;;;;;;4995102;28;20484;-71
2022/09/02 03:29:49;;;;;;;0.10;0.10;;;15.80;99.90;;;;;;4997534;28;20054;-71
2022/09/02 03:32:15;;;;;;;0.10;0.10;;;15.80;99.90;;;;;;5011983;28;20058;-71
2022/09/02 03:34:40;;;;;;;0.10;0.10;;;15.80;99.90;;;;;;4998071;28;20547;-71
2022/09/02 03:37:07;;;;;;;0.00;0.00;;;15.80;99.90;;;;;;4992714;28;20054;-71
2022/09/02 03:39:33;;;;;;;0.10;0.10;;;15.80;99.90;;;;;;4996781;28;20042;-71
2022/09/02 03:41:58;;;;;;;0.10;0.10;;;15.80;99.90;;;;;;4999473;28;20077;-72
2022/09/02 03:44:24;;;;;;;0.10;0.10;;;15.80;99.90;;;;;;4994069;28;20047;-71
2022/09/02 03:46:49;;;;;;;0.00;0.00;;;15.80;99.90;;;;;;4992781;28;20601;-71
2022/09/02 03:49:15;;;;;;;0.00;0.00;;;15.80;99.90;;;;;;4993068;28;20073;-71
2022/09/02 03:51:42;;;;;;;0.10;0.10;;;15.80;99.90;;;;;;4992807;28;20053;-71
2022/09/02 03:54:09;;;;;;;0.00;0.00;;;15.70;99.90;;;;;;5012610;28;20042;-71
2022/09/02 03:56:35;;;;;;;0.10;0.10;;;15.70;99.90;;;;;;4994918;28;20402;-71
2022/09/02 03:59:00;;;;;;;0.00;0.00;;;15.70;99.90;;;;;;5008340;28;20072;-71
2022/09/02 04:01:26;;;;;;;0.10;0.10;;;15.60;99.90;;;;;;4999420;28;20038;-71
2022/09/02 04:03:52;;;;;;;0.10;0.10;;;15.60;99.90;;;;;;4991542;28;20054;-71
2022/09/02 04:06:20;;;;;;;0.28;0.28;;;15.60;99.90;;;;;;5012522;28;20409;-71
2022/09/02 04:08:48;;;;;;;0.10;0.10;;;15.60;99.90;;;;;;5000784;28;20054;-71
2022/09/02 04:11:17;;;;;;;0.08;0.08;;;15.60;99.90;;;;;;5003521;28;20498;-71
2022/09/02 04:13:44;;;;;;;0.10;0.10;;;15.50;99.90;;;;;;5010444;28;20454;-72
2022/09/02 04:16:12;;;;;;;0.50;0.30;;;15.50;99.90;;;;;;5012543;28;20085;-71
2022/09/02 04:18:38;;;;;;;1.50;0.32;;;15.50;99.90;;;;;;5010281;28;20128;-71
2022/09/02 04:21:04;;;;;;;0.10;0.10;;;15.40;99.90;;;;;;5010125;28;20125;-71
2022/09/02 04:23:31;;;;;;;0.00;0.00;;;15.40;99.90;;;;;;4996741;28;20054;-71
2022/09/02 04:25:57;;;;;;;0.00;0.00;;;15.50;99.90;;;;;;5009594;28;20057;-71
2022/09/02 04:28:23;;;;;;;0.00;0.00;;;15.40;99.90;;;;;;5011217;28;20042;-71
2022/09/02 04:30:50;;;;;;;0.05;0.05;;;15.40;99.90;;;;;;5003707;28;20077;-71
2022/09/02 04:33:16;;;;;;;0.05;0.05;;;15.40;99.90;;;;;;4998963;28;20127;-71
2022/09/02 04:35:44;;;;;;;0.30;0.30;;;15.40;99.90;;;;;;5010302;28;20038;-71
2022/09/02 04:38:10;;;;;;;0.00;0.00;;;15.40;99.90;;;;;;4993068;28;20049;-71
2022/09/02 04:40:40;;;;;;;0.25;0.20;;;15.40;99.90;;;;;;5006319;28;20060;-71
2022/09/02 04:43:06;;;;;;;0.00;0.00;;;15.30;99.90;;;;;;5003962;28;20038;-71
2022/09/02 04:45:32;;;;;;;0.20;0.20;;;15.30;99.90;;;;;;4991355;28;20047;-71
2022/09/02 04:47:57;;;;;;;0.10;0.10;;;15.30;99.90;;;;;;4990999;28;20105;-71
2022/09/02 04:50:23;;;;;;;0.10;0.10;;;15.30;99.90;;;;;;4992627;28;20050;-71
2022/09/02 04:52:48;;;;;;;0.03;0.03;;;15.20;99.90;;;;;;5000295;28;20041;-71
2022/09/02 04:55:14;;;;;;;0.00;0.00;;;15.20;99.90;;;;;;4998141;28;20128;-71
2022/09/02 04:57:40;;;;;;;0.10;0.10;;;15.30;99.90;;;;;;4992028;28;20082;-71
2022/09/02 05:00:07;;;;;;;0.00;0.00;;;15.20;99.90;;;;;;5010315;28;20080;-71
2022/09/02 05:02:32;;;;;;;0.00;0.00;;;15.20;99.90;;;;;;5010857;28;20050;-72
2022/09/02 05:04:58;;;;;;;4.53;1.10;;;15.20;99.90;;;;;;4996465;28;20526;-71
2022/09/02 05:07:24;;;;;;;0.10;0.10;;;15.20;99.90;;;;;;5000744;28;20074;-71
2022/09/02 05:09:55;;;;;;;0.25;0.25;;;15.20;99.90;;;;;;5008406;28;20092;-71
2022/09/02 05:12:21;;;;;;;0.10;0.10;;;15.20;99.90;;;;;;5009579;28;20137;-71
2022/09/02 05:14:47;;;;;;;0.00;0.00;;;15.20;99.90;;;;;;5011026;28;20138;-71
2022/09/02 05:17:14;;;;;;;0.40;0.40;;;15.20;99.90;;;;;;5011638;28;20060;-71
2022/09/02 05:19:40;;;;;;;0.10;0.10;;;15.20;99.90;;;;;;4999256;28;20054;-71
2022/09/02 05:22:06;;;;;;;0.10;0.10;;;15.20;99.90;;;;;;4999781;28;20235;-71
2022/09/02 05:24:31;;;;;;;0.10;0.10;;;15.30;99.90;;;;;;5011513;28;20183;-71
2022/09/02 05:26:57;;;;;;;0.10;0.10;;;15.30;99.90;;;;;;5007143;28;20045;-71
2022/09/02 05:29:23;;;;;;;0.10;0.10;;;15.30;99.90;;;;;;4996702;28;20054;-71
2022/09/02 05:31:49;;;;;;;0.10;0.10;;;15.30;99.90;;;;;;5010649;28;20124;-72
2022/09/02 05:34:15;;;;;;;0.00;0.00;;;15.30;99.90;;;;;;5006884;28;20073;-72
2022/09/02 05:36:41;;;;;;;0.10;0.10;;;15.30;99.90;;;;;;4990420;28;20796;-72
2022/09/02 05:39:08;;;;;;;0.20;0.20;;;15.30;99.90;;;;;;5003288;28;20045;-72
2022/09/02 05:41:34;;;;;;;0.00;0.00;;;15.30;99.90;;;;;;4991478;28;20052;-72
2022/09/02 05:44:01;;;;;;;0.00;0.00;;;15.40;99.90;;;;;;4997511;28;20042;-71
2022/09/02 05:46:27;;;;;;;0.30;0.30;;;15.50;99.90;;;;;;4989837;28;20866;-72
2022/09/02 05:49:07;;;;;;;0.22;0.22;;;15.50;99.90;;;;;;4989581;28;20053;-71
2022/09/02 05:51:40;;;;;;;0.00;0.00;;;15.40;99.90;;;;;;4990766;28;20129;-71
2022/09/02 05:54:08;;;;;;;0.00;0.00;;;15.40;99.90;;;;;;4993341;28;20192;-72
2022/09/02 05:56:35;;;;;;;0.10;0.10;;;15.50;99.90;;;;;;4996854;28;20034;-72
2022/09/02 05:59:01;;;;;;;0.10;0.10;;;15.50;99.90;;;;;;4988878;28;20106;-72
2022/09/02 06:01:28;;;;;;;0.00;0.00;;;15.60;99.90;;;;;;4989855;28;20465;-72
2022/09/02 06:03:56;;;;;;;0.10;0.10;;;15.50;99.90;;;;;;4990725;28;20129;-72
2022/09/02 06:06:22;;;;;;;0.10;0.10;;;15.50;99.90;;;;;;5001449;28;20049;-72
2022/09/02 06:08:49;;;;;;;0.00;0.00;;;15.50;99.90;;;;;;5010586;28;20121;-72
2022/09/02 06:11:16;;;;;;;0.10;0.10;;;15.50;99.90;;;;;;4996363;28;20058;-72
2022/09/02 06:13:42;;;;;;;0.20;0.20;;;15.60;99.90;;;;;;4991380;28;20049;-72
2022/09/02 06:16:12;;;;;;;0.00;0.00;;;15.60;99.90;;;;;;5010007;28;20049;-72
2022/09/02 06:18:38;;;;;;;0.10;0.10;;;15.70;99.90;;;;;;5005641;28;20052;-73
2022/09/02 06:21:04;;;;;;;0.10;0.10;;;15.70;99.90;;;;;;5005549;28;20038;-72
2022/09/02 06:23:32;;;;;;;0.10;0.10;;;15.80;99.90;;;;;;5008222;28;20046;-73
2022/09/02 06:25:58;;;;;;;0.00;0.00;;;15.80;99.90;;;;;;5008325;28;20037;-73
2022/09/02 06:28:24;;;;;;;0.10;0.10;;;15.80;99.90;;;;;;5008032;28;20041;-72
2022/09/02 06:30:49;;;;;;;0.00;0.00;;;15.80;99.90;;;;;;4997537;28;20516;-73
2022/09/02 06:33:15;;;;;;;0.00;0.00;;;15.90;99.90;;;;;;5002047;28;20401;-73
2022/09/02 06:35:43;;;;;;;0.00;0.00;;;15.90;99.90;;;;;;4990391;28;20045;-74
2022/09/02 06:38:09;;;;;;;0.03;0.03;;;15.90;99.90;;;;;;5004663;28;20077;-73
2022/09/02 06:40:36;;;;;;;0.10;0.10;;;16.00;99.90;;;;;;5009742;28;20041;-73
2022/09/02 06:43:02;;;;;;;0.20;0.20;;;16.00;99.90;;;;;;4997824;28;20116;-73
2022/09/02 06:45:30;;;;;;;0.00;0.00;;;16.10;99.90;;;;;;5012024;28;20049;-74
2022/09/02 06:47:55;;;;;;;0.10;0.10;;;16.10;99.90;;;;;;5013921;28;20049;-74
2022/09/02 06:50:21;;;;;;;0.10;0.10;;;16.20;99.90;;;;;;4994514;28;20453;-74
2022/09/02 06:52:47;;;;;;;0.10;0.10;;;16.30;99.90;;;;;;4993214;28;20398;-74
2022/09/02 06:55:12;;;;;;;0.00;0.00;;;16.30;99.90;;;;;;4995946;28;20474;-73
2022/09/02 06:57:38;;;;;;;0.05;0.05;;;16.40;99.90;;;;;;4996072;28;20393;-73
2022/09/02 07:00:07;;;;;;;0.08;0.08;;;16.50;99.90;;;;;;4992392;28;20105;-74
2022/09/02 07:02:33;;;;;;;0.10;0.10;;;16.50;99.90;;;;;;5008902;28;20455;-74
2022/09/02 07:05:14;;;;;;;0.10;0.10;;;16.60;99.90;;;;;;4992586;28;20049;-74
2022/09/02 07:07:42;;;;;;;0.10;0.10;;;16.60;99.90;;;;;;4992068;28;20046;-74
2022/09/02 07:10:10;;;;;;;0.10;0.10;;;16.60;99.90;;;;;;4992741;28;20050;-74
2022/09/02 07:12:37;;;;;;;0.00;0.00;;;16.70;99.90;;;;;;4993001;28;20133;-74
2022/09/02 07:15:04;;;;;;;0.00;0.00;;;16.80;99.90;;;;;;4993147;28;20046;-73
2022/09/02 07:17:30;;;;;;;0.20;0.20;;;16.80;99.90;;;;;;4990918;28;20046;-73
2022/09/02 07:19:58;;;;;;;0.00;0.00;;;16.90;99.90;;;;;;5004763;28;20046;-73
2022/09/02 07:22:24;;;;;;;0.10;0.10;;;16.90;99.90;;;;;;4999869;28;20049;-73
2022/09/02 07:24:50;;;;;;;0.10;0.10;;;17.00;99.90;;;;;;5009797;28;20053;-73
2022/09/02 07:27:16;;;;;;;0.10;0.10;;;17.10;99.90;;;;;;4998610;28;20080;-73
2022/09/02 07:29:43;;;;;;;0.00;0.00;;;17.20;99.90;;;;;;5005059;28;20034;-73
2022/09/02 07:32:08;;;;;;;0.10;0.10;;;17.20;99.90;;;;;;5006945;28;20505;-73
2022/09/02 07:34:34;;;;;;;0.00;0.00;;;17.30;99.90;;;;;;5005958;28;20042;-74
2022/09/02 07:37:00;;;;;;;0.00;0.00;;;17.40;99.90;;;;;;5004783;28;20050;-74
2022/09/02 07:39:26;;;;;;;0.00;0.00;;;17.50;99.90;;;;;;5008120;28;20138;-73
2022/09/02 07:41:51;;;;;;;0.10;0.10;;;17.60;99.90;;;;;;4999006;28;20101;-74
2022/09/02 07:44:19;;;;;;;0.10;0.10;;;17.70;99.90;;;;;;4997492;28;20573;-74
2022/09/02 07:46:45;;;;;;;0.13;0.13;;;17.70;99.90;;;;;;5010304;28;20073;-73
2022/09/02 07:49:12;;;;;;;0.08;0.08;;;17.80;99.90;;;;;;5006579;28;20612;-73
2022/09/02 07:51:40;;;;;;;0.00;0.00;;;17.90;99.90;;;;;;4994282;28;20052;-73
2022/09/02 07:54:08;;;;;;;0.00;0.00;;;18.00;99.90;;;;;;4997944;28;20393;-73
2022/09/02 07:56:34;;;;;;;0.10;0.10;;;18.10;99.90;;;;;;5007639;28;20103;-74
2022/09/02 07:59:00;;;;;;;0.10;0.10;;;18.20;99.90;;;;;;5001950;28;20053;-74
2022/09/02 08:01:26;;;;;;;0.00;0.00;;;18.30;99.90;;;;;;5002283;28;20042;-74
2022/09/02 08:03:52;;;;;;;0.00;0.00;;;18.30;99.90;;;;;;5002396;28;20046;-73
2022/09/02 08:06:22;;;;;;;0.10;0.10;;;18.40;99.90;;;;;;5007732;28;20049;-74
2022/09/02 08:08:48;;;;;;;0.10;0.10;;;18.40;99.90;;;;;;4993547;28;20157;-72
2022/09/02 08:11:14;;;;;;;0.00;0.00;;;18.50;99.90;;;;;;4996991;28;20046;-75
2022/09/02 08:13:39;;;;;;;0.00;0.00;;;18.60;99.90;;;;;;5000697;28;20096;-72
2022/09/02 08:16:05;;;;;;;0.00;0.00;;;18.60;99.90;;;;;;5001024;28;20042;-71
2022/09/02 08:18:32;;;;;;;0.30;0.30;;;18.70;99.90;;;;;;4996836;28;20050;-72
2022/09/02 08:20:58;;;;;;;0.10;0.10;;;18.70;99.90;;;;;;4992164;28;20101;-71
2022/09/02 08:23:23;;;;;;;0.05;0.05;;;18.70;99.90;;;;;;4998204;28;20034;-72
2022/09/02 08:25:49;;;;;;;0.10;0.10;;;18.80;99.90;;;;;;4997852;28;20449;-71
2022/09/02 08:28:15;;;;;;;0.10;0.10;;;18.90;99.90;;;;;;4996124;28;20050;-71
2022/09/02 08:30:40;;;;;;;0.00;0.00;;;18.90;99.90;;;;;;5002731;28;20038;-71
2022/09/02 08:33:06;;;;;;;0.57;0.57;;;19.00;99.90;;;;;;4999932;28;20049;-71
2022/09/02 08:35:32;;;;;;;0.52;0.52;;;19.00;99.90;;;;;;4998053;28;20062;-71
2022/09/02 08:37:58;;;;;;;0.03;0.03;;;19.10;99.90;;;;;;5000519;28;20161;-72
2022/09/02 08:40:35;;;;;;;0.00;0.00;;;19.20;99.90;;;;;;5000872;28;20105;-73
2022/09/02 08:43:04;;;;;;;0.00;0.00;;;19.30;99.90;;;;;;5001999;28;20104;-72
2022/09/02 08:45:36;;;;;;;0.08;0.08;;;19.30;99.90;;;;;;5010590;28;20053;-72
2022/09/02 08:48:44;;;;;;;0.00;0.00;;;19.50;99.90;;;;;;5010896;28;20041;-73
2022/09/02 08:51:15;;;;;;;0.10;0.10;;;19.60;99.90;;;;;;4984348;28;20064;-73
2022/09/02 08:54:13;;;;;;;0.00;0.00;;;19.70;99.90;;;;;;4998702;28;20088;-73
2022/09/02 08:56:40;;;;;;;0.00;0.00;;;19.80;99.20;;;;;;5000028;28;20117;-72
2022/09/02 08:59:08;;;;;;;0.00;0.00;;;19.90;99.40;;;;;;5002712;28;20062;-71
2022/09/02 09:01:46;;;;;;;0.03;0.03;;;20.10;99.00;;;;;;4997007;28;20125;-71
2022/09/02 09:04:30;;;;;;;0.10;0.10;;;20.70;98.80;;;;;;4993872;28;20109;-71
2022/09/02 09:07:27;;;;;;;0.10;0.10;;;21.30;98.20;;;;;;5006983;28;20367;-72
2022/09/02 09:10:24;;;;;;;0.13;0.13;;;22.10;97.00;;;;;;5005582;28;20494;-71
2022/09/02 09:13:00;;;;;;;0.08;0.08;;;22.70;96.00;;;;;;4991266;28;20562;-71
2022/09/02 09:15:34;;;;;;;0.08;0.08;;;23.20;94.90;;;;;;5006445;28;20041;-72
2022/09/02 09:18:02;;;;;;;0.00;0.00;;;23.60;94.60;;;;;;4998081;28;20367;-72
2022/09/02 09:20:31;;;;;;;0.00;0.00;;;24.00;94.60;;;;;;4990867;28;20045;-71
2022/09/02 09:22:59;;;;;;;0.05;0.05;;;24.40;94.30;;;;;;5003087;28;20397;-71
2022/09/02 09:25:30;;;;;;;0.00;0.00;;;24.60;93.70;;;;;;4994645;28;20421;-71
2022/09/02 09:28:00;;;;;;;0.00;0.00;;;24.90;93.50;;;;;;4991006;28;20035;-70
2022/09/02 09:30:27;;;;;;;0.00;0.00;;;24.90;93.20;;;;;;4996392;28;20096;-71
2022/09/02 09:32:56;;;;;;;0.00;0.00;;;24.90;92.30;;;;;;4990746;28;20054;-71
2022/09/02 09:35:23;;;;;;;0.10;0.10;;;25.30;92.90;;;;;;4992985;28;20088;-71
2022/09/02 09:37:53;;;;;;;0.00;0.00;;;25.60;92.80;;;;;;4991454;28;20082;-72
2022/09/02 09:40:27;;;;;;;0.55;0.38;;;25.60;91.90;;;;;;4997351;28;20393;-71
2022/09/02 09:43:04;;;;;;;0.00;0.00;;;25.60;91.70;;;;;;5004869;28;20500;-71
2022/09/02 09:45:42;;;;;;;0.00;0.00;;;25.90;91.90;;;;;;5010172;28;20073;-71
2022/09/02 09:48:26;;;;;;;0.00;0.00;;;26.00;91.50;;;;;;5009130;28;20050;-72
2022/09/02 09:50:55;;;;;;;0.03;0.03;;;26.00;91.70;;;;;;4998462;28;20053;-72
2022/09/02 09:53:22;;;;;;;0.30;0.10;;;25.80;90.70;;;;;;4989915;28;20134;-72
2022/09/02 09:55:56;;;;;;;0.00;0.00;;;26.00;91.40;;;;;;4989766;28;20050;-72
2022/09/02 09:58:28;;;;;;;1.00;0.52;;;26.10;91.80;;;;;;4988180;28;20064;-71
2022/09/02 10:00:55;;;;;;;0.00;0.00;;;26.30;91.30;;;;;;4990468;28;20081;-72
2022/09/02 10:03:25;;;;;;;0.00;0.00;;;26.20;90.90;;;;;;4987234;28;20120;-72
2022/09/02 10:05:58;;;;;;;0.00;0.00;;;26.40;91.30;;;;;;5000582;28;20042;-72
2022/09/02 10:08:26;;;;;;;0.00;0.00;;;26.20;90.60;;;;;;5005429;28;20064;-71
2022/09/02 10:10:56;;;;;;;0.10;0.10;;;26.20;90.70;;;;;;5008141;28;20131;-72
2022/09/02 10:13:25;;;;;;;0.00;0.00;;;26.10;90.40;;;;;;4993314;28;20048;-72
2022/09/02 10:16:03;;;;;;;0.00;0.00;;;26.10;91.40;;;;;;4988733;28;20395;-72
2022/09/02 10:18:50;;;;;;;0.00;0.00;;;26.30;91.40;;;;;;4996044;28;20532;-71
2022/09/02 10:21:42;;;;;;;0.15;0.15;;;26.10;90.70;;;;;;5008334;28;20045;-72
2022/09/02 10:24:42;;;;;;;0.93;0.63;;;26.00;90.50;;;;;;5001066;28;20050;-72
2022/09/02 10:27:15;;;;;;;0.00;0.00;;;25.70;90.50;;;;;;4990772;28;20408;-72
2022/09/02 10:29:51;;;;;;;;;;;25.50;90.20;;;;;;4992713;28;20042;-72
2022/09/02 10:32:20;;;;;;;0.10;0.05;;;25.40;90.90;;;;;;4998921;28;19922;-72
2022/09/02 10:35:02;;;;;;;0.10;0.10;;;25.50;91.70;;;;;;4992118;28;20093;-72
2022/09/02 10:38:09;;;;;;;0.00;0.00;;;25.50;91.50;;;;;;4990532;28;20378;-72
2022/09/02 10:40:42;;;;;;;0.00;0.00;;;25.40;90.30;;;;;;5000251;28;20374;-72
2022/09/02 10:43:23;;;;;;;0.00;0.00;;;25.10;90.80;;;;;;4998847;28;20049;-72
2022/09/02 10:45:52;;;;;;;0.00;0.00;;;25.00;90.20;;;;;;5005488;28;20073;-73
2022/09/02 10:48:31;;;;;;;1.88;0.93;;;25.10;91.10;;;;;;5009065;28;20153;-72
2022/09/02 10:51:02;;;;;;;0.00;0.00;;;25.00;90.00;;;;;;4990281;28;20054;-73
2022/09/02 10:53:35;;;;;;;0.00;0.00;;;25.10;90.20;;;;;;4988620;28;20184;-72
2022/09/02 10:56:03;;;;;;;0.00;0.00;;;25.10;91.00;;;;;;4990538;28;20049;-73
2022/09/02 10:59:01;;;;;;;0.00;0.00;;;25.40;91.40;;;;;;4989834;28;20494;-73
2022/09/02 11:01:39;;;;;;;0.47;0.32;;;25.40;91.00;;;;;;5006473;28;20046;-72
2022/09/02 11:04:15;;;;;;;0.10;0.10;;;25.60;90.60;;;;;;4989075;28;20518;-73
2022/09/02 11:06:44;;;;;;;1.65;0.55;;;25.50;90.00;;;;;;4989557;28;20089;-73
2022/09/02 11:09:22;;;;;;;0.00;0.00;;;25.60;90.70;;;;;;4993841;28;20393;-73
2022/09/02 11:11:56;;;;;;;0.08;0.08;;;25.60;89.00;;;;;;4991762;28;20129;-74
2022/09/02 11:14:28;;;;;;;0.00;0.00;;;25.80;89.60;;;;;;4997451;28;20051;-73
2022/09/02 11:17:01;;;;;;;0.00;0.00;;;26.00;90.70;;;;;;4998982;28;20061;-73
2022/09/02 11:19:34;;;;;;;0.00;0.00;;;26.10;90.10;;;;;;5009717;28;20046;-73
2022/09/02 11:22:25;;;;;;;0.20;0.20;;;26.40;89.00;;;;;;5009041;28;20508;-73
2022/09/02 11:25:08;;;;;;;0.00;0.00;;;26.40;87.40;;;;;;4990950;28;20049;-73
2022/09/02 11:27:39;;;;;;;0.00;0.00;;;26.50;89.20;;;;;;4989355;28;20498;-73
2022/09/02 11:30:11;;;;;;;0.10;0.10;;;26.60;88.50;;;;;;4994850;28;20503;-73
2022/09/02 11:33:06;;;;;;;0.00;0.00;;;26.70;88.30;;;;;;4993499;28;20117;-73
2022/09/02 11:35:37;;;;;;;0.00;0.00;;;27.10;88.00;;;;;;4984582;28;20050;-73
2022/09/02 11:38:35;;;;;;;0.45;0.28;;;27.10;86.80;;;;;;4991313;28;20184;-73
2022/09/02 11:41:09;;;;;;;0.57;0.30;;;27.40;87.60;;;;;;4998984;28;20126;-73
2022/09/02 11:43:46;;;;;;;0.17;0.10;;;27.30;86.00;;;;;;4995043;28;20096;-73
2022/09/02 11:46:26;;;;;;;0.10;0.00;;;27.40;86.90;;;;;;4992431;28;20498;-73
2022/09/02 11:49:10;;;;;;;0.00;0.00;;;27.40;86.50;;;;;;4992698;28;20469;-74
2022/09/02 11:51:51;;;;;;;0.00;0.00;;;27.30;86.10;;;;;;4995282;28;20547;-74
2022/09/02 11:54:20;;;;;;;0.00;0.00;;;27.10;87.10;;;;;;5008277;28;20042;-73
2022/09/02 11:56:50;;;;;;;0.08;0.03;;;27.20;85.70;;;;;;5012173;28;20049;-73
2022/09/02 11:59:51;;;;;;;0.00;0.00;;;27.40;86.80;;;;;;4995228;28;20058;-73
2022/09/02 12:02:44;;;;;;;0.75;0.13;;;27.30;85.00;;;;;;4991176;28;20137;-74
2022/09/02 12:05:28;;;;;;;0.00;0.00;;;27.50;87.10;;;;;;4992181;28;20046;-74
2022/09/02 12:07:57;;;;;;;0.00;0.00;;;27.80;87.30;;;;;;4995764;28;20049;-74
2022/09/02 12:10:47;;;;;;;0.08;0.08;;;27.90;85.30;;;;;;5000546;28;20042;-74
2022/09/02 12:13:39;;;;;;;0.00;0.00;;;28.10;85.50;;;;;;5029473;28;20060;-74
2022/09/02 12:16:20;;;;;;;0.80;0.52;;;28.40;85.40;;;;;;5010528;28;20060;-74
2022/09/02 12:19:09;;;;;;;0.28;0.22;;;28.60;85.20;;;;;;4994940;28;20050;-74
2022/09/02 12:21:55;;;;;;;0.08;0.08;;;28.60;86.40;;;;;;5008505;28;20490;-74
2022/09/02 12:24:23;;;;;;;0.00;0.00;;;28.80;84.20;;;;;;4992399;28;20510;-74
2022/09/02 12:26:52;;;;;;;0.10;0.10;;;29.00;84.70;;;;;;5006357;28;20056;-74
2022/09/02 12:29:18;;;;;;;0.00;0.00;;;29.00;83.70;;;;;;5011421;28;20050;-73
2022/09/02 12:31:46;;;;;;;0.00;0.00;;;29.10;81.40;;;;;;5011424;28;20115;-73
2022/09/02 12:34:20;;;;;;;0.03;0.03;;;29.20;82.30;;;;;;5004973;28;20048;-74
2022/09/02 12:37:03;;;;;;;0.08;0.08;;;29.00;82.20;;;;;;5001748;28;20071;-73
2022/09/02 12:39:34;;;;;;;0.00;0.00;;;28.70;81.40;;;;;;5009689;28;20045;-74
2022/09/02 12:42:14;;;;;;;0.13;0.08;;;29.10;83.90;;;;;;5009898;28;20057;-74
2022/09/02 12:45:04;;;;;;;0.00;0.00;;;29.10;82.70;;;;;;4992565;28;20065;-75
2022/09/02 12:47:48;;;;;;;0.00;0.00;;;29.20;81.20;;;;;;4994181;28;20050;-74
2022/09/02 12:50:32;;;;;;;0.00;0.00;;;29.30;83.90;;;;;;4998267;28;20041;-74
2022/09/02 12:53:22;;;;;;;0.00;0.00;;;29.20;82.90;;;;;;5010920;28;20133;-73
2022/09/02 12:56:17;;;;;;;10.05;0.10;;;29.40;82.30;;;;;;5008314;28;20137;-73
2022/09/02 12:58:50;;;;;;;0.00;0.00;;;29.30;80.60;;;;;;4990177;28;20058;-73
2022/09/02 13:01:18;;;;;;;;;;;29.20;80.70;;;;;;4991460;28;20046;-74
2022/09/02 13:04:08;;;;;;;0.00;0.00;;;29.20;82.90;;;;;;5010184;28;20401;-74